Time;durP1;ratioP1;P1;durP2;ratioP2;P2;SDS_P1;SDS_P2;PMS_P1;PMS_P2;Temp;Humidity;BMP_temperature;BMP_pressure;BME280_temperature;BME280_humidity;BME280_pressure;Samples;Min_cycle;Max_cycle;Signal;HPM_P1;HPM_P2
2023/09/23 00:02:21;;;;;;;0.83;0.20;;;;;;;16.87;70.40;99306.59;5112875;28;20676;-79
2023/09/23 00:04:46;;;;;;;0.00;0.00;;;;;;;17.14;70.58;99335.59;5113243;28;20189;-79
2023/09/23 00:07:12;;;;;;;0.23;0.23;;;;;;;16.99;70.50;99325.63;5112365;28;20193;-80
2023/09/23 00:09:37;;;;;;;0.20;0.07;;;;;;;17.17;69.73;99325.75;5113789;28;20173;-79
2023/09/23 00:12:03;;;;;;;4.63;0.47;;;;;;;16.99;70.70;99338.63;5113244;28;20204;-79
2023/09/23 00:14:28;;;;;;;0.10;0.10;;;;;;;16.95;70.48;99333.88;5113585;28;20201;-80
2023/09/23 00:16:54;;;;;;;0.33;0.23;;;;;;;16.59;71.25;99324.44;5113521;28;20179;-80
2023/09/23 00:19:19;;;;;;;0.00;0.00;;;;;;;17.00;70.87;99352.03;5111720;28;20253;-79
2023/09/23 00:21:45;;;;;;;0.10;0.10;;;;;;;16.83;71.43;99344.41;5112966;28;20226;-79
2023/09/23 00:24:10;;;;;;;0.00;0.00;;;;;;;17.00;70.87;99365.84;5113106;28;20189;-80
2023/09/23 00:26:36;;;;;;;0.23;0.23;;;;;;;16.85;70.98;99342.03;5113453;28;20539;-79
2023/09/23 00:29:01;;;;;;;0.20;0.10;;;;;;;17.06;70.62;99371.78;5111934;28;20650;-80
2023/09/23 00:31:27;;;;;;;0.03;0.03;;;;;;;17.39;69.85;99379.16;5112864;27;20177;-80
2023/09/23 00:33:52;;;;;;;0.00;0.00;;;;;;;17.25;70.10;99366.84;5112987;28;20859;-79
2023/09/23 00:36:19;;;;;;;0.00;0.00;;;;;;;17.16;69.77;99355.31;5113397;28;20208;-80
2023/09/23 00:38:45;;;;;;;0.07;0.07;;;;;;;17.64;69.01;99393.13;5113317;28;20180;-79
2023/09/23 00:41:10;;;;;;;0.10;0.10;;;;;;;17.38;69.53;99383.09;5112708;28;20180;-79
2023/09/23 00:43:35;;;;;;;0.10;0.10;;;;;;;16.92;70.31;99353.94;5112884;28;20201;-78
2023/09/23 00:46:05;;;;;;;0.00;0.00;;;;;;;16.99;70.62;99380.00;5111552;28;20614;-79
2023/09/23 00:48:38;;;;;;;0.43;0.43;;;;;;;16.74;71.00;99369.53;5112744;28;20204;-79
2023/09/23 00:51:03;;;;;;;0.10;0.10;;;;;;;16.80;71.36;99378.25;5111055;28;20181;-79
2023/09/23 00:53:29;;;;;;;0.10;0.10;;;;;;;17.07;70.51;99382.47;5113022;28;20207;-80
2023/09/23 00:55:56;;;;;;;0.00;0.00;;;;;;;17.60;69.75;99415.22;5111929;28;20177;-79
2023/09/23 00:58:24;;;;;;;0.10;0.10;;;;;;;17.31;69.54;99394.06;5112793;28;20212;-78
2023/09/23 01:00:51;;;;;;;0.00;0.00;;;;;;;17.34;69.62;99377.53;5110652;28;20219;-78
2023/09/23 01:03:21;;;;;;;0.00;0.00;;;;;;;17.16;70.15;99387.66;5112374;28;20197;-78
2023/09/23 01:05:48;;;;;;;0.00;0.00;;;;;;;17.34;70.27;99396.88;5110983;28;20200;-78
2023/09/23 01:08:18;;;;;;;0.00;0.00;;;;;;;17.22;70.28;99384.16;5112178;28;20181;-79
2023/09/23 01:10:45;;;;;;;0.00;0.00;;;;;;;17.49;69.92;99411.56;5110554;28;20177;-79
2023/09/23 01:13:11;;;;;;;0.00;0.00;;;;;;;17.04;70.08;99374.94;5112099;28;20875;-79
2023/09/23 01:15:46;;;;;;;0.00;0.00;;;;;;;17.47;70.04;99423.00;5112310;28;20193;-78
2023/09/23 01:18:24;;;;;;;0.00;0.00;;;;;;;17.78;68.94;99427.19;5110838;28;20562;-79
2023/09/23 01:20:51;;;;;;;0.10;0.03;;;;;;;17.65;68.60;99403.00;5111585;28;20177;-78
2023/09/23 01:23:17;;;;;;;0.00;0.00;;;;;;;17.63;68.86;99416.41;5110616;28;20201;-79
2023/09/23 01:25:43;;;;;;;3.13;0.47;;;;;;;17.39;68.96;99387.44;5112041;28;20284;-78
2023/09/23 01:28:11;;;;;;;5.93;0.50;;;;;;;17.27;69.55;99401.56;5111877;28;20220;-79
2023/09/23 01:30:37;;;;;;;0.30;0.20;;;;;;;16.93;69.98;99388.66;5110425;28;20654;-78
2023/09/23 01:33:07;;;;;;;0.53;0.17;;;;;;;16.85;70.58;99384.22;5114774;28;20253;-78
2023/09/23 01:35:33;;;;;;;0.77;0.20;;;;;;;17.24;70.28;99427.97;5114524;28;20177;-79
2023/09/23 01:37:59;;;;;;;0.00;0.00;;;;;;;17.33;70.06;99424.84;5116890;28;20589;-80
2023/09/23 01:40:29;;;;;;;0.10;0.10;;;;;;;17.30;69.94;99433.91;5115521;28;20351;-80
2023/09/23 01:42:55;;;;;;;0.03;0.03;;;;;;;17.31;70.16;99428.00;5116737;28;20290;-79
2023/09/23 01:45:22;;;;;;;0.00;0.00;;;;;;;17.09;70.31;99418.75;5116561;28;20196;-79
2023/09/23 01:47:48;;;;;;;0.00;0.00;;;;;;;17.41;70.25;99454.94;5117158;28;20188;-80
2023/09/23 01:50:13;;;;;;;0.07;0.07;;;;;;;17.19;69.78;99401.47;5115689;28;20204;-80
2023/09/23 01:52:41;;;;;;;3.60;0.57;;;;;;;17.16;70.03;99429.84;5116704;28;20238;-80
2023/09/23 01:55:08;;;;;;;0.10;0.10;;;;;;;17.30;69.85;99431.16;5116960;28;20234;-79
2023/09/23 01:57:34;;;;;;;0.00;0.00;;;;;;;16.70;71.22;99407.31;5116691;28;20207;-80
2023/09/23 02:00:01;;;;;;;0.17;0.17;;;;;;;16.83;71.52;99430.72;5114430;28;20189;-80
2023/09/23 02:02:27;;;;;;;0.20;0.20;;;;;;;16.63;72.02;99424.53;5115251;28;20242;-80
2023/09/23 02:04:53;;;;;;;0.20;0.20;;;;;;;16.54;72.38;99428.78;5116531;28;20173;-79
2023/09/23 02:07:18;;;;;;;0.77;0.77;;;;;;;16.36;72.83;99426.59;5116763;28;20192;-80
2023/09/23 02:09:45;;;;;;;0.00;0.00;;;;;;;16.51;72.63;99433.09;5115879;28;20252;-79
2023/09/23 02:12:11;;;;;;;0.00;0.00;;;;;;;16.29;72.86;99420.19;5116250;28;20184;-79
2023/09/23 02:14:39;;;;;;;0.37;0.33;;;;;;;16.28;72.98;99437.91;5116018;28;20222;-80
2023/09/23 02:17:04;;;;;;;0.17;0.10;;;;;;;16.48;72.53;99428.31;5116088;28;20177;-79
2023/09/23 02:19:30;;;;;;;0.00;0.00;;;;;;;16.54;72.31;99448.06;5114730;28;20614;-80
2023/09/23 02:21:55;;;;;;;0.40;0.30;;;;;;;16.69;71.88;99452.63;5115105;28;20169;-79
2023/09/23 02:24:20;;;;;;;0.00;0.00;;;;;;;16.63;71.69;99446.59;5114421;28;20209;-79
2023/09/23 02:26:46;;;;;;;0.03;0.03;;;;;;;16.83;71.13;99452.00;5115911;28;20197;-79
2023/09/23 02:29:15;;;;;;;0.50;0.50;;;;;;;16.25;71.90;99433.16;5115485;27;20192;-80
2023/09/23 02:31:47;;;;;;;0.57;0.43;;;;;;;16.25;72.58;99442.22;5115343;27;20173;-79
2023/09/23 02:34:17;;;;;;;1.07;0.97;;;;;;;16.30;72.30;99443.84;5113943;28;20209;-79
2023/09/23 02:36:45;;;;;;;0.33;0.33;;;;;;;16.35;72.36;99438.81;5107067;28;20178;-80
2023/09/23 02:39:15;;;;;;;0.73;0.73;;;;;;;16.43;72.33;99452.66;5114611;28;20670;-79
2023/09/23 02:41:45;;;;;;;0.27;0.27;;;;;;;16.27;72.56;99444.59;5115300;28;20181;-79
2023/09/23 02:44:11;;;;;;;0.30;0.30;;;;;;;16.52;71.86;99451.22;5115210;28;20228;-79
2023/09/23 02:46:37;;;;;;;1.23;0.17;;;;;;;16.52;71.84;99453.97;5113922;28;20236;-79
2023/09/23 02:49:02;;;;;;;0.83;0.83;;;;;;;16.54;72.11;99459.91;5115151;28;20177;-77
2023/09/23 02:51:27;;;;;;;0.00;0.00;;;;;;;16.50;72.07;99464.59;5114292;28;20181;-80
2023/09/23 02:53:53;;;;;;;0.10;0.10;;;;;;;16.58;71.88;99466.25;5114915;28;20670;-79
2023/09/23 02:56:18;;;;;;;0.30;0.20;;;;;;;16.52;71.87;99467.75;5115336;28;20201;-80
2023/09/23 02:58:44;;;;;;;0.30;0.30;;;;;;;16.01;72.72;99450.91;5114178;28;20646;-80
2023/09/23 03:01:14;;;;;;;0.30;0.30;;;;;;;15.96;72.82;99456.75;5114208;28;20184;-79
2023/09/23 03:03:40;;;;;;;0.50;0.47;;;;;;;16.14;72.79;99484.56;5114743;28;20283;-79
2023/09/23 03:06:10;;;;;;;0.50;0.50;;;;;;;16.17;72.30;99486.56;5114598;28;20204;-80
2023/09/23 03:08:39;;;;;;;1.17;1.17;;;;;;;16.19;72.58;99493.28;5113431;28;20185;-79
2023/09/23 03:11:09;;;;;;;0.50;0.50;;;;;;;15.99;72.48;99472.53;5112758;28;20230;-80
2023/09/23 03:13:36;;;;;;;0.40;0.40;;;;;;;15.92;72.47;99473.25;5114842;28;20573;-79
2023/09/23 03:16:09;;;;;;;0.73;0.67;;;;;;;15.87;71.94;99472.75;5114629;28;20169;-78
2023/09/23 03:18:39;;;;;;;2.10;0.73;;;;;;;15.76;71.86;99489.91;5114681;28;20177;-79
2023/09/23 03:21:07;;;;;;;0.40;0.40;;;;;;;15.65;72.36;99490.91;5114049;28;20177;-79
2023/09/23 03:23:33;;;;;;;0.97;0.90;;;;;;;15.73;71.78;99474.13;5113084;28;20223;-79
2023/09/23 03:26:00;;;;;;;0.87;0.70;;;;;;;15.94;71.32;99492.94;5114195;28;20200;-79
2023/09/23 03:28:25;;;;;;;0.10;0.10;;;;;;;15.95;71.12;99500.06;5113096;28;20207;-79
2023/09/23 03:30:59;;;;;;;0.57;0.57;;;;;;;15.85;70.84;99510.91;5113865;28;20698;-79
2023/09/23 03:33:24;;;;;;;10.33;0.73;;;;;;;15.73;70.76;99503.63;5114211;28;20205;-78
2023/09/23 03:35:49;;;;;;;0.57;0.57;;;;;;;15.72;70.74;99513.84;5113023;28;20181;-80
2023/09/23 03:38:15;;;;;;;0.73;0.73;;;;;;;15.61;71.24;99523.88;5114173;28;20556;-78
2023/09/23 03:40:41;;;;;;;0.87;0.87;;;;;;;15.58;71.48;99521.03;5113531;28;20221;-78
2023/09/23 03:43:06;;;;;;;0.50;0.50;;;;;;;15.49;72.58;99537.81;5112318;28;20249;-80
2023/09/23 03:45:35;;;;;;;1.10;1.00;;;;;;;15.43;73.32;99551.06;5114048;28;20200;-80
2023/09/23 03:48:01;;;;;;;1.17;0.83;;;;;;;15.48;73.52;99575.56;5113852;28;20233;-80
2023/09/23 03:50:26;;;;;;;0.20;0.20;;;;;;;15.57;73.67;99575.31;5113458;28;20611;-79
2023/09/23 03:52:52;;;;;;;1.10;0.97;;;;;;;15.51;73.95;99557.50;5113781;28;20197;-80
2023/09/23 03:55:18;;;;;;;0.40;0.30;;;;;;;15.56;74.11;99570.19;5113294;28;20177;-79
2023/09/23 03:57:44;;;;;;;0.47;0.47;;;;;;;15.39;74.76;99575.00;5113910;27;20181;-78
2023/09/23 04:00:16;;;;;;;1.10;1.10;;;;;;;15.26;75.80;99584.56;5111542;28;20179;-78
2023/09/23 04:02:44;;;;;;;1.10;1.03;;;;;;;15.04;76.79;99582.53;5112218;28;20181;-78
2023/09/23 04:05:10;;;;;;;0.97;0.97;;;;;;;14.96;78.65;99594.56;5113236;28;20219;-79
2023/09/23 04:07:36;;;;;;;0.40;0.40;;;;;;;14.94;79.53;99589.44;5113367;28;20173;-77
2023/09/23 04:10:02;;;;;;;1.00;1.00;;;;;;;14.79;80.86;99590.28;5111772;28;20230;-79
2023/09/23 04:12:27;;;;;;;2.03;1.93;;;;;;;14.72;81.99;99604.66;5116397;28;20177;-78
2023/09/23 04:14:53;;;;;;;1.43;1.40;;;;;;;14.65;83.29;99612.78;5114207;28;20188;-80
2023/09/23 04:17:18;;;;;;;0.50;0.50;;;;;;;14.84;83.37;99628.50;5113705;28;20209;-78
2023/09/23 04:19:43;;;;;;;2.40;1.60;;;;;;;14.94;83.75;99632.66;5111531;28;20181;-77
2023/09/23 04:22:11;;;;;;;0.70;0.60;;;;;;;14.88;84.16;99635.66;5112734;28;20208;-78
2023/09/23 04:24:36;;;;;;;1.07;1.07;;;;;;;14.80;84.47;99639.44;5111537;28;20272;-78
2023/09/23 04:27:02;;;;;;;1.30;1.20;;;;;;;14.61;85.12;99631.16;5110958;28;20196;-78
2023/09/23 04:29:29;;;;;;;8.23;1.50;;;;;;;14.73;86.08;99654.97;5111063;28;20192;-78
2023/09/23 04:31:56;;;;;;;1.43;1.33;;;;;;;14.93;86.31;99664.84;5110822;28;20181;-77
2023/09/23 04:34:24;;;;;;;0.63;0.63;;;;;;;14.93;86.05;99662.09;5113186;28;20192;-78
2023/09/23 04:36:49;;;;;;;9.20;1.10;;;;;;;14.92;85.98;99656.97;5113309;28;20180;-78
2023/09/23 04:39:15;;;;;;;0.73;0.73;;;;;;;14.76;86.43;99660.56;5113316;28;20568;-77
2023/09/23 04:41:41;;;;;;;0.50;0.50;;;;;;;15.19;86.16;99683.50;5112719;28;20199;-79
2023/09/23 04:44:07;;;;;;;0.37;0.37;;;;;;;14.96;85.60;99666.09;5113124;28;20205;-79
2023/09/23 04:46:33;;;;;;;0.97;0.97;;;;;;;14.93;85.91;99680.56;5112067;28;21100;-78
2023/09/23 04:49:00;;;;;;;0.93;0.93;;;;;;;14.97;85.81;99692.44;5113148;28;20181;-78
2023/09/23 04:51:25;;;;;;;0.57;0.57;;;;;;;15.05;85.34;99688.69;5113163;28;20184;-78
2023/09/23 04:53:51;;;;;;;0.00;0.00;;;;;;;15.17;85.12;99692.09;5103673;28;20193;-78
2023/09/23 04:56:17;;;;;;;1.07;1.07;;;;;;;15.04;84.44;99676.88;5102532;28;20586;-78
2023/09/23 04:58:43;;;;;;;0.93;0.83;;;;;;;14.93;84.88;99686.06;5079677;28;20182;-78
2023/09/23 05:01:14;;;;;;;0.00;0.00;;;;;;;14.96;84.71;99680.63;5076281;28;20228;-78
2023/09/23 05:03:39;;;;;;;1.30;1.20;;;;;;;14.89;85.08;99695.00;5079444;28;20233;-77
2023/09/23 05:06:05;;;;;;;0.53;0.53;;;;;;;14.82;85.01;99688.56;5110372;28;20227;-79
2023/09/23 05:08:32;;;;;;;3.03;2.73;;;;;;;14.74;84.86;99687.59;5115104;28;20192;-77
2023/09/23 05:10:57;;;;;;;1.90;1.80;;;;;;;14.66;85.00;99687.81;5115881;28;20173;-77
2023/09/23 05:13:24;;;;;;;12.57;3.80;;;;;;;14.35;85.63;99686.66;5115048;28;20261;-78
2023/09/23 05:15:50;;;;;;;9.67;3.00;;;;;;;14.29;86.66;99705.34;5115106;28;20173;-79
2023/09/23 05:18:15;;;;;;;2.97;2.70;;;;;;;14.34;86.77;99706.25;5116615;28;20184;-77
2023/09/23 05:20:40;;;;;;;3.43;3.13;;;;;;;14.27;87.08;99704.91;5105245;28;20568;-78
2023/09/23 05:23:06;;;;;;;3.97;3.67;;;;;;;14.35;87.35;99718.84;5079835;28;20268;-79
2023/09/23 05:25:31;;;;;;;4.27;3.97;;;;;;;14.51;87.13;99722.41;5111255;28;20698;-78
2023/09/23 05:27:57;;;;;;;6.30;4.27;;;;;;;14.47;86.70;99714.09;5113228;28;20192;-78
2023/09/23 05:30:25;;;;;;;7.17;6.67;;;;;;;14.47;86.70;99725.06;5114295;28;20192;-77
2023/09/23 05:32:50;;;;;;;7.37;6.87;;;;;;;14.39;86.25;99717.75;5114795;28;20251;-78
2023/09/23 05:35:16;;;;;;;7.93;4.40;;;;;;;14.43;86.22;99721.38;5102888;28;20204;-79
2023/09/23 05:37:41;;;;;;;5.73;4.37;;;;;;;14.51;86.34;99725.94;5116071;28;20173;-78
2023/09/23 05:42:48;;;;;;;6.73;6.13;;;;;;;14.30;86.12;99728.13;5116123;28;20345;-79
2023/09/23 05:45:15;;;;;;;4.03;3.73;;;;;;;14.43;86.11;99750.81;5115688;28;20209;-78
2023/09/23 05:47:45;;;;;;;8.43;6.37;;;;;;;14.39;85.76;99753.50;5115736;28;20696;-78
2023/09/23 05:50:10;;;;;;;3.90;3.43;;;;;;;14.47;85.37;99762.75;5113769;28;20189;-78
2023/09/23 05:52:36;;;;;;;5.87;5.37;;;;;;;14.47;84.94;99771.81;5114170;28;20275;-79
2023/09/23 05:55:03;;;;;;;3.83;3.60;;;;;;;14.55;84.44;99781.81;5114480;28;20177;-83
2023/09/23 05:57:29;;;;;;;2.70;2.50;;;;;;;14.60;84.12;99772.50;5115724;28;20646;-82
2023/09/23 05:59:55;;;;;;;3.73;3.37;;;;;;;14.49;83.73;99774.19;5113329;28;20686;-78
2023/09/23 06:02:21;;;;;;;2.17;2.03;;;;;;;14.77;83.10;99780.41;5115237;28;20315;-78
2023/09/23 06:04:47;;;;;;;7.40;6.87;;;;;;;14.47;83.06;99762.75;5113689;28;20205;-79
2023/09/23 06:07:12;;;;;;;5.00;4.70;;;;;;;14.59;83.02;99777.19;5113810;28;20193;-79
2023/09/23 06:09:37;;;;;;;5.47;4.77;;;;;;;14.78;82.08;99789.44;5115034;27;20673;-80
2023/09/23 06:12:03;;;;;;;2.70;2.60;;;;;;;14.92;81.59;99794.50;5114155;28;20185;-80
2023/09/23 06:14:28;;;;;;;2.77;2.57;;;;;;;14.89;81.57;99790.47;5114862;28;20308;-79
2023/09/23 06:16:53;;;;;;;2.53;2.43;;;;;;;14.93;80.67;99782.34;5114804;28;20181;-79
2023/09/23 06:19:19;;;;;;;4.77;4.43;;;;;;;14.88;80.63;99780.63;5114267;28;20173;-79
2023/09/23 06:21:44;;;;;;;4.33;4.00;;;;;;;14.98;80.52;99793.06;5114497;28;20184;-80
2023/09/23 06:24:10;;;;;;;6.57;6.03;;;;;;;15.03;79.56;99801.81;5113448;28;20270;-79
2023/09/23 06:26:37;;;;;;;5.30;4.87;;;;;;;15.12;79.37;99807.94;5114891;28;20203;-79
2023/09/23 06:29:04;;;;;;;3.20;3.00;;;;;;;14.97;79.09;99808.78;5113352;28;20201;-79
2023/09/23 06:31:29;;;;;;;2.20;2.03;;;;;;;15.13;78.94;99817.81;5112830;28;20238;-79
2023/09/23 06:33:55;;;;;;;3.97;3.67;;;;;;;15.07;78.72;99815.69;5113329;28;20205;-79
2023/09/23 06:36:20;;;;;;;4.37;4.03;;;;;;;14.95;79.34;99815.78;5113120;28;20226;-80
2023/09/23 06:38:45;;;;;;;12.47;5.47;;;;;;;14.83;79.67;99822.97;5114752;28;20173;-80
2023/09/23 06:41:10;;;;;;;4.33;4.03;;;;;;;15.04;79.32;99838.38;5114106;28;20257;-80
2023/09/23 06:43:36;;;;;;;4.77;4.47;;;;;;;14.96;79.77;99829.19;5114305;28;20567;-80
2023/09/23 06:46:01;;;;;;;1.67;1.53;;;;;;;15.14;79.15;99843.38;5104501;28;20205;-78
2023/09/23 06:48:28;;;;;;;7.83;4.03;;;;;;;14.93;79.38;99840.91;5114434;28;20192;-79
2023/09/23 06:51:01;;;;;;;7.43;6.83;;;;;;;15.18;79.17;99852.50;5113790;28;20173;-78
2023/09/23 06:53:30;;;;;;;4.37;3.97;;;;;;;15.35;78.43;99863.16;5116094;28;20201;-80
2023/09/23 06:55:56;;;;;;;8.53;6.10;;;;;;;15.19;78.39;99848.63;5115618;28;20807;-80
2023/09/23 06:58:21;;;;;;;4.50;3.73;;;;;;;15.51;77.84;99865.06;5115685;28;20213;-80
2023/09/23 07:00:47;;;;;;;3.20;2.90;;;;;;;15.51;77.06;99848.56;5115081;28;20185;-80
2023/09/23 07:03:12;;;;;;;5.30;4.90;;;;;;;15.37;77.23;99847.06;5114889;28;20691;-80
2023/09/23 07:05:38;;;;;;;4.17;3.87;;;;;;;15.40;77.22;99856.56;5116169;28;20314;-80
2023/09/23 07:08:04;;;;;;;2.30;2.20;;;;;;;15.63;77.02;99871.28;5111443;28;20279;-81
2023/09/23 07:10:33;;;;;;;3.27;3.07;;;;;;;15.54;76.73;99856.09;5116089;28;20173;-81
2023/09/23 07:12:58;;;;;;;2.90;2.70;;;;;;;15.65;76.69;99870.94;5114256;28;20201;-81
2023/09/23 07:15:24;;;;;;;2.73;2.53;;;;;;;15.68;76.40;99873.75;5115971;28;20229;-81
2023/09/23 07:17:49;;;;;;;2.30;2.20;;;;;;;15.95;75.28;99896.78;5115220;28;20264;-81
2023/09/23 07:20:15;;;;;;;1.83;1.73;;;;;;;15.73;75.52;99873.47;5115431;28;20283;-79
2023/09/23 07:22:40;;;;;;;3.30;3.10;;;;;;;15.90;74.75;99888.00;5114743;28;20647;-81
2023/09/23 07:25:06;;;;;;;3.13;2.60;;;;;;;15.79;75.07;99892.50;5114261;28;20197;-81
2023/09/23 07:27:31;;;;;;;2.67;2.47;;;;;;;15.91;75.08;99884.91;5114333;28;20234;-80
2023/09/23 07:29:56;;;;;;;2.53;2.03;;;;;;;15.79;75.05;99884.22;5114384;28;20198;-81
2023/09/23 07:32:22;;;;;;;3.93;1.63;;;;;;;15.84;75.34;99894.94;5115736;28;20176;-80
2023/09/23 07:34:47;;;;;;;1.23;1.13;;;;;;;15.74;75.51;99905.38;5114818;28;20209;-79
2023/09/23 07:37:13;;;;;;;3.33;3.13;;;;;;;15.90;75.51;99921.06;5112591;28;20185;-81
2023/09/23 07:39:39;;;;;;;1.90;1.80;;;;;;;15.90;75.84;99927.34;5113529;28;20565;-81
2023/09/23 07:42:05;;;;;;;1.03;1.03;;;;;;;15.94;76.52;99939.28;5114656;28;20181;-81
2023/09/23 07:44:30;;;;;;;2.53;2.43;;;;;;;16.03;76.16;99936.31;5114882;28;20687;-80
2023/09/23 07:46:55;;;;;;;2.20;2.10;;;;;;;16.05;75.74;99939.50;5115207;28;20193;-79
2023/09/23 07:49:21;;;;;;;6.33;3.47;;;;;;;15.99;75.74;99943.69;5113229;28;20181;-80
2023/09/23 07:51:46;;;;;;;2.17;2.07;;;;;;;16.22;75.03;99938.31;5114691;28;20174;-80
2023/09/23 07:54:12;;;;;;;1.07;1.07;;;;;;;16.46;74.82;99973.03;5113258;28;20617;-79
2023/09/23 07:56:37;;;;;;;1.47;1.37;;;;;;;16.34;74.41;99957.44;5113400;28;20693;-81
2023/09/23 07:59:02;;;;;;;3.37;3.03;;;;;;;16.12;74.57;99947.13;5113749;28;20271;-80
2023/09/23 08:01:29;;;;;;;3.43;2.83;;;;;;;16.41;74.22;99957.59;5113243;28;20260;-80
2023/09/23 08:03:54;;;;;;;1.43;1.33;;;;;;;16.48;74.20;99970.72;5114314;28;20205;-79
2023/09/23 08:06:19;;;;;;;1.80;1.57;;;;;;;16.35;74.69;99956.31;5112806;28;20212;-80
2023/09/23 08:08:45;;;;;;;2.07;1.97;;;;;;;16.22;74.58;99972.19;5108301;28;20243;-80
2023/09/23 08:11:10;;;;;;;1.50;1.40;;;;;;;16.45;74.68;99994.31;5085184;28;20190;-80
2023/09/23 08:13:36;;;;;;;2.20;2.10;;;;;;;16.25;74.50;99985.22;5092966;28;20209;-80
2023/09/23 08:16:02;;;;;;;3.10;1.97;;;;;;;16.28;74.28;99990.00;5094072;28;20261;-80
2023/09/23 08:18:28;;;;;;;2.27;2.17;;;;;;;16.32;74.29;100007.44;5088763;28;20182;-80
2023/09/23 08:21:00;;;;;;;1.10;1.00;;;;;;;16.59;73.95;100018.63;5087291;28;20198;-80
2023/09/23 08:23:26;;;;;;;2.13;1.80;;;;;;;16.51;73.56;100009.44;5092707;28;20339;-79
2023/09/23 08:25:52;;;;;;;2.43;1.83;;;;;;;16.68;73.31;100024.78;5086112;28;20206;-80
2023/09/23 08:28:18;;;;;;;9.53;1.90;;;;;;;16.75;73.75;100040.66;5085169;28;20671;-80
2023/09/23 08:30:44;;;;;;;8.63;1.93;;;;;;;16.89;73.39;100033.47;5078062;28;20206;-80
2023/09/23 08:33:10;;;;;;;4.27;1.17;;;;;;;16.70;73.82;100032.69;5085748;28;20213;-80
2023/09/23 08:35:36;;;;;;;1.57;1.40;;;;;;;17.00;72.76;100027.38;5092004;28;20547;-79
2023/09/23 08:38:01;;;;;;;2.77;1.00;;;;;;;17.16;72.41;100042.69;5084544;28;20181;-79
2023/09/23 08:40:36;;;;;;;0.83;0.83;;;;;;;17.45;72.07;100070.81;5082685;28;20177;-80
2023/09/23 08:43:04;;;;;;;2.30;2.10;;;;;;;17.14;72.66;100050.53;5091571;28;20559;-79
2023/09/23 08:45:31;;;;;;;1.93;1.50;;;;;;;17.05;72.24;100038.91;5077575;28;20198;-79
2023/09/23 08:48:00;;;;;;;1.20;0.90;;;;;;;17.30;71.70;100052.41;5099504;28;20674;-79
2023/09/23 08:50:26;;;;;;;1.53;1.43;;;;;;;17.20;72.15;100065.63;5095645;28;20196;-78
2023/09/23 08:52:52;;;;;;;0.80;0.80;;;;;;;17.34;72.02;100075.34;5090660;28;20189;-79
2023/09/23 08:55:19;;;;;;;1.53;1.43;;;;;;;17.50;71.78;100084.31;5092525;28;20182;-79
2023/09/23 08:57:44;;;;;;;1.23;1.13;;;;;;;17.50;70.95;100073.28;5080061;28;20269;-79
2023/09/23 09:00:13;;;;;;;1.50;1.00;;;;;;;17.67;71.25;100089.41;5100914;28;20242;-80
2023/09/23 09:02:38;;;;;;;1.57;1.47;;;;;;;17.78;71.15;100090.38;5111972;28;20185;-80
2023/09/23 09:05:04;;;;;;;3.10;1.70;;;;;;;17.91;70.62;100085.47;5112642;28;20523;-79
2023/09/23 09:07:37;;;;;;;1.47;1.37;;;;;;;17.98;70.71;100101.41;5105296;28;20190;-80
2023/09/23 09:10:04;;;;;;;7.23;1.90;;;;;;;17.49;70.05;100061.44;5108132;28;20185;-79
2023/09/23 09:12:33;;;;;;;3.67;1.67;;;;;;;17.67;70.14;100091.38;5112116;28;20188;-78
2023/09/23 09:14:59;;;;;;;1.50;1.40;;;;;;;17.50;69.97;100076.03;5102375;28;20181;-80
2023/09/23 09:17:25;;;;;;;4.00;1.63;;;;;;;17.53;69.85;100078.09;5112122;28;20184;-78
2023/09/23 09:19:50;;;;;;;1.67;1.03;;;;;;;17.54;69.48;100068.63;5110189;28;20181;-78
2023/09/23 09:22:17;;;;;;;4.03;2.30;;;;;;;17.53;69.04;100076.13;5110605;28;20181;-78
2023/09/23 09:24:43;;;;;;;0.47;0.47;;;;;;;17.98;69.13;100118.78;5111314;28;20201;-85
2023/09/23 09:27:13;;;;;;;2.63;1.90;;;;;;;17.59;68.59;100082.13;5111115;28;20197;-83
2023/09/23 09:29:43;;;;;;;1.93;1.40;;;;;;;17.65;68.84;100102.78;5110160;28;20195;-80
2023/09/23 09:32:13;;;;;;;1.87;1.20;;;;;;;17.59;68.94;100090.41;5112257;28;20249;-79
2023/09/23 09:34:46;;;;;;;1.90;1.13;;;;;;;17.77;69.49;100116.44;5113300;28;20197;-80
2023/09/23 09:37:15;;;;;;;0.87;0.87;;;;;;;17.84;69.33;100121.28;5113641;28;20200;-79
2023/09/23 09:39:51;;;;;;;1.20;1.10;;;;;;;17.74;68.37;100108.88;5107353;28;20182;-80
2023/09/23 09:42:24;;;;;;;5.10;3.20;;;;;;;17.92;68.69;100133.25;5110710;28;20188;-79
2023/09/23 09:44:54;;;;;;;2.50;1.77;;;;;;;17.90;68.37;100130.06;5110492;28;20722;-77
2023/09/23 09:47:20;;;;;;;1.50;1.40;;;;;;;17.61;68.46;100107.44;5111047;28;20620;-78
2023/09/23 09:49:46;;;;;;;1.33;0.70;;;;;;;17.81;68.66;100122.03;5111315;28;20187;-77
2023/09/23 09:52:13;;;;;;;1.23;1.13;;;;;;;18.18;67.96;100152.69;5112041;28;20245;-79
2023/09/23 09:54:40;;;;;;;1.70;1.60;;;;;;;18.27;67.50;100136.63;5113985;28;20209;-78
2023/09/23 09:57:07;;;;;;;6.47;1.43;;;;;;;18.22;67.05;100125.88;5114009;28;20642;-79
2023/09/23 09:59:33;;;;;;;1.87;1.77;;;;;;;18.18;66.84;100116.72;5107886;28;20177;-79
2023/09/23 10:01:59;;;;;;;0.80;0.53;;;;;;;18.38;66.75;100137.63;5089959;28;20179;-79
2023/09/23 10:04:34;;;;;;;1.60;1.43;;;;;;;18.40;66.61;100137.25;5103704;28;20197;-79
2023/09/23 10:07:00;;;;;;;1.27;1.20;;;;;;;18.23;67.05;100127.50;5095644;28;20205;-80
2023/09/23 10:09:32;;;;;;;0.63;0.63;;;;;;;18.84;66.38;100162.44;5110080;28;20180;-80
2023/09/23 10:11:59;;;;;;;1.63;1.53;;;;;;;18.63;66.08;100140.75;5114779;28;20185;-79
2023/09/23 10:14:26;;;;;;;3.53;1.30;;;;;;;18.83;65.96;100154.50;5116210;28;20207;-80
2023/09/23 10:16:59;;;;;;;2.50;2.10;;;;;;;19.01;64.84;100145.25;5108539;28;20178;-80
2023/09/23 10:19:38;;;;;;;4.23;1.90;;;;;;;19.04;63.88;100118.78;5085080;28;20177;-79
2023/09/23 10:22:20;;;;;;;6.93;1.10;;;;;;;19.02;63.48;100124.69;5113509;28;20177;-78
2023/09/23 10:24:46;;;;;;;5.10;1.47;;;;;;;18.91;64.62;100134.03;5114535;28;20750;-80
2023/09/23 10:27:13;;;;;;;3.00;1.83;;;;;;;18.86;63.89;100126.06;5115886;28;20200;-80
2023/09/23 10:29:42;;;;;;;1.37;1.30;;;;;;;18.93;63.97;100140.00;5115315;28;20185;-80
2023/09/23 10:32:14;;;;;;;1.20;1.10;;;;;;;19.08;63.78;100143.75;5115696;28;20180;-79
2023/09/23 10:34:55;;;;;;;1.50;1.40;;;;;;;18.89;63.41;100117.81;5115808;28;20240;-80
2023/09/23 10:37:32;;;;;;;2.43;1.13;;;;;;;19.13;63.61;100144.22;5083322;28;20255;-80
2023/09/23 10:40:17;;;;;;;1.50;1.13;;;;;;;19.23;62.58;100120.59;5098289;28;20187;-78
2023/09/23 10:42:46;;;;;;;2.27;1.73;;;;;;;19.13;63.02;100135.91;5114501;28;20537;-80
2023/09/23 10:45:13;;;;;;;1.50;1.13;;;;;;;19.09;62.57;100112.09;5114127;28;20280;-80
2023/09/23 10:47:39;;;;;;;1.80;1.00;;;;;;;19.11;62.42;100124.44;5112939;28;20659;-80
2023/09/23 10:50:05;;;;;;;0.40;0.40;;;;;;;19.27;62.39;100129.75;5112210;28;20253;-80
2023/09/23 10:52:31;;;;;;;1.60;1.50;;;;;;;19.38;61.99;100138.16;5112428;28;20215;-79
2023/09/23 10:54:57;;;;;;;3.60;1.10;;;;;;;19.26;62.43;100114.31;5104301;28;20634;-80
2023/09/23 10:57:23;;;;;;;2.67;1.77;;;;;;;19.13;62.78;100122.06;5113919;28;20185;-79
2023/09/23 10:59:50;;;;;;;1.10;1.03;;;;;;;19.36;62.90;100135.78;5113469;28;20181;-79
2023/09/23 11:02:15;;;;;;;3.20;1.07;;;;;;;19.46;62.52;100132.34;5113839;28;20231;-79
2023/09/23 11:04:45;;;;;;;0.73;0.73;;;;;;;19.72;61.84;100148.09;5112574;28;20197;-79
2023/09/23 11:07:11;;;;;;;2.13;1.53;;;;;;;19.59;60.92;100119.84;5112161;28;20573;-80
2023/09/23 11:09:36;;;;;;;1.60;1.00;;;;;;;19.90;60.24;100137.19;5109930;28;20193;-79
2023/09/23 11:12:18;;;;;;;1.50;1.33;;;;;;;19.88;60.17;100120.94;5112251;28;20196;-81
2023/09/23 11:14:47;;;;;;;6.70;1.40;;;;;;;19.71;60.54;100135.41;5106897;28;20616;-80
2023/09/23 11:17:25;;;;;;;0.57;0.57;;;;;;;20.08;60.40;100154.78;5111803;28;20647;-80
2023/09/23 11:20:00;;;;;;;1.10;1.00;;;;;;;19.60;60.39;100124.22;5112148;28;20196;-79
2023/09/23 11:22:26;;;;;;;2.03;1.13;;;;;;;19.06;61.64;100102.59;5113711;28;20701;-79
2023/09/23 11:24:53;;;;;;;1.10;1.10;;;;;;;18.72;61.71;100105.31;5112286;28;20689;-79
2023/09/23 11:27:18;;;;;;;1.70;1.10;;;;;;;18.82;62.06;100114.16;5112417;28;20209;-80
2023/09/23 11:29:44;;;;;;;0.50;0.50;;;;;;;18.98;62.44;100146.00;5113418;28;20196;-79
2023/09/23 11:32:10;;;;;;;1.27;0.83;;;;;;;18.81;62.61;100138.28;5110985;28;20181;-82
2023/09/23 11:34:36;;;;;;;0.93;0.93;;;;;;;18.77;62.54;100131.88;5098559;28;20201;-81